Time;durP1;ratioP1;P1;durP2;ratioP2;P2;SDS_P1;SDS_P2;PMS_P1;PMS_P2;Temp;Humidity;BMP_temperature;BMP_pressure;BME280_temperature;BME280_humidity;BME280_pressure;Samples;Min_cycle;Max_cycle;Signal;HPM_P1;HPM_P2
2022/01/24 00:01:46;;;;;;;266.90;100.53;;;;;;;;;;4948678;28;20472;-78
2022/01/24 00:04:12;;;;;;;225.97;99.63;;;;;;;;;;4963963;28;20439;-79
2022/01/24 00:06:39;;;;;;;353.30;117.43;;;;;;;;;;4952110;28;20434;-78
2022/01/24 00:09:06;;;;;;;302.53;114.40;;;;;;;;;;4950663;28;20425;-79
2022/01/24 00:11:57;;;;;;;444.47;129.90;;;;;;;;;;4954130;28;21095;-79
2022/01/24 00:28:07;;;;;;;268.90;110.57;;;;;;;;;;4952388;28;21237;-79
2022/01/24 00:30:33;;;;;;;234.60;106.17;;;;;;;;;;4952556;28;21080;-79
2022/01/24 00:32:59;;;;;;;249.87;106.13;;;;;;;;;;4953226;28;20533;-79
2022/01/24 00:35:25;;;;;;;402.33;127.57;;;;;;;;;;4951363;28;21267;-79
2022/01/24 00:37:52;;;;;;;394.30;127.87;;;;;;;;;;4952728;28;21030;-79
2022/01/24 00:40:18;;;;;;;443.57;128.20;;;;;;;;;;4952431;28;20426;-79
2022/01/24 00:42:54;;;;;;;246.33;111.40;;;;;;;;;;4947983;28;20426;-79
2022/01/24 00:55:43;;;;;;;232.17;106.77;;;;;;;;;;4952640;28;20418;-79
2022/01/24 00:58:09;;;;;;;494.10;129.17;;;;;;;;;;4949315;28;20449;-79
2022/01/24 01:00:37;;;;;;;359.60;120.87;;;;;;;;;;4952088;28;21410;-78
2022/01/24 01:03:03;;;;;;;322.30;122.67;;;;;;;;;;4953047;28;20418;-79
2022/01/24 01:05:48;;;;;;;458.33;134.63;;;;;;;;;;4963305;28;20430;-79
2022/01/24 01:18:58;;;;;;;240.93;101.77;;;;;;;;;;4949833;28;20468;-78
2022/01/24 01:21:25;;;;;;;194.43;91.77;;;;;;;;;;4948325;28;20431;-78
2022/01/24 01:23:55;;;;;;;230.53;93.30;;;;;;;;;;4952655;28;20442;-78
2022/01/24 01:27:09;;;;;;;309.00;108.00;;;;;;;;;;4953707;28;21283;-78
2022/01/24 01:29:17;;;;;;;226.23;99.33;;;;;;;;;;4949012;28;21096;-78
2022/01/24 01:31:54;;;;;;;366.20;118.63;;;;;;;;;;4953041;28;20426;-78
2022/01/24 01:55:40;;;;;;;549.50;146.17;;;;;;;;;;4952946;28;20445;-78
2022/01/24 01:58:07;;;;;;;351.60;125.40;;;;;;;;;;4952035;28;20461;-78
2022/01/24 02:00:34;;;;;;;575.53;145.70;;;;;;;;;;4951600;28;21282;-79
2022/01/24 02:03:00;;;;;;;399.20;129.03;;;;;;;;;;4969748;28;20438;-79
2022/01/24 02:05:26;;;;;;;594.60;144.83;;;;;;;;;;4955534;28;21298;-79
2022/01/24 02:07:53;;;;;;;404.17;121.93;;;;;;;;;;4955157;28;20450;-77
2022/01/24 02:10:20;;;;;;;403.13;122.93;;;;;;;;;;4955486;28;21282;-78
2022/01/24 02:12:47;;;;;;;507.20;131.47;;;;;;;;;;4955980;28;21166;-78
2022/01/24 02:15:21;;;;;;;457.40;132.20;;;;;;;;;;4954497;28;21063;-78
2022/01/24 02:23:48;;;;;;;297.47;114.43;;;;;;;;;;4954262;28;20522;-78
2022/01/24 02:25:49;;;;;;;465.33;126.23;;;;;;;;;;4952999;28;20414;-78
2022/01/24 02:28:18;;;;;;;266.63;107.40;;;;;;;;;;4954946;28;20465;-79
2022/01/24 02:31:06;;;;;;;398.70;126.20;;;;;;;;;;4967827;28;20419;-79
2022/01/24 02:33:33;;;;;;;342.87;112.80;;;;;;;;;;4953969;28;20402;-78
2022/01/24 02:35:59;;;;;;;269.43;106.60;;;;;;;;;;4953342;28;20481;-77
2022/01/24 02:49:13;;;;;;;290.63;99.63;;;;;;;;;;4957845;28;20463;-79
2022/01/24 02:51:46;;;;;;;216.03;91.80;;;;;;;;;;4955805;28;20440;-79
2022/01/24 02:54:18;;;;;;;265.13;100.38;;;;;;;;;;4956769;28;20454;-79
2022/01/24 02:56:44;;;;;;;306.47;100.57;;;;;;;;;;4952813;28;21565;-79
2022/01/24 02:59:10;;;;;;;257.90;92.33;;;;;;;;;;4956445;28;20441;-79
2022/01/24 03:01:40;;;;;;;242.33;95.37;;;;;;;;;;4952904;28;20423;-79
2022/01/24 03:04:06;;;;;;;222.47;89.27;;;;;;;;;;4951644;28;20430;-77
2022/01/24 03:06:32;;;;;;;184.10;80.07;;;;;;;;;;4952719;28;20426;-77
2022/01/24 03:08:58;;;;;;;201.73;84.70;;;;;;;;;;4953910;28;20985;-77
2022/01/24 03:11:27;;;;;;;339.67;99.50;;;;;;;;;;4953728;28;20430;-78
2022/01/24 03:13:53;;;;;;;294.10;99.10;;;;;;;;;;4955870;28;20429;-78
2022/01/24 03:16:20;;;;;;;261.20;96.03;;;;;;;;;;4950472;28;20522;-79
2022/01/24 03:18:46;;;;;;;271.87;99.43;;;;;;;;;;4964443;28;21163;-78
2022/01/24 03:21:13;;;;;;;239.27;96.97;;;;;;;;;;4951106;28;20664;-77
2022/01/24 03:23:39;;;;;;;324.77;92.53;;;;;;;;;;4950495;28;20191;-77
2022/01/24 03:26:05;;;;;;;309.90;99.87;;;;;;;;;;4949311;28;20444;-78
2022/01/24 03:28:31;;;;;;;251.00;97.30;;;;;;;;;;4949517;28;20472;-77
2022/01/24 03:30:57;;;;;;;393.27;112.17;;;;;;;;;;4970162;28;20452;-78
2022/01/24 03:33:23;;;;;;;469.20;122.27;;;;;;;;;;4953589;28;20450;-78
2022/01/24 03:35:49;;;;;;;283.33;96.90;;;;;;;;;;4956678;28;20419;-78
2022/01/24 03:38:15;;;;;;;411.33;117.95;;;;;;;;;;4953168;28;20422;-78
2022/01/24 03:40:41;;;;;;;333.63;111.37;;;;;;;;;;4951565;28;20182;-78
2022/01/24 03:43:08;;;;;;;283.85;105.35;;;;;;;;;;4956329;28;20430;-78
2022/01/24 03:45:44;;;;;;;328.83;111.10;;;;;;;;;;4953368;28;20209;-78
2022/01/24 03:50:37;;;;;;;231.77;92.30;;;;;;;;;;4956826;28;20865;-78
2022/01/24 03:53:04;;;;;;;181.77;87.70;;;;;;;;;;4953983;28;20421;-78
2022/01/24 03:55:30;;;;;;;188.60;84.33;;;;;;;;;;4952257;28;20428;-78
2022/01/24 03:57:56;;;;;;;298.50;98.90;;;;;;;;;;4962672;28;21372;-78
2022/01/24 04:00:22;;;;;;;360.13;109.13;;;;;;;;;;4951048;28;20669;-78
2022/01/24 04:02:49;;;;;;;308.97;104.37;;;;;;;;;;4935067;28;20442;-78
2022/01/24 04:05:15;;;;;;;205.13;89.50;;;;;;;;;;4949237;28;21427;-78
2022/01/24 04:07:41;;;;;;;176.40;83.37;;;;;;;;;;4952434;28;21240;-78
2022/01/24 04:10:08;;;;;;;175.97;83.43;;;;;;;;;;4952349;28;20427;-78
2022/01/24 04:12:37;;;;;;;167.17;79.70;;;;;;;;;;4956582;28;21290;-78
2022/01/24 04:15:58;;;;;;;200.00;84.57;;;;;;;;;;4968333;28;21434;-78
2022/01/24 04:18:29;;;;;;;132.57;66.20;;;;;;;;;;4950819;28;20536;-78
2022/01/24 04:23:42;;;;;;;151.97;70.90;;;;;;;;;;4956568;28;20614;-78
2022/01/24 04:26:08;;;;;;;137.07;66.53;;;;;;;;;;4952339;28;20429;-78
2022/01/24 04:28:34;;;;;;;207.43;80.60;;;;;;;;;;4953111;28;20544;-78
2022/01/24 04:31:00;;;;;;;164.07;70.90;;;;;;;;;;4954092;28;20430;-78
2022/01/24 04:33:26;;;;;;;154.20;73.20;;;;;;;;;;4954102;28;21177;-78
2022/01/24 04:35:52;;;;;;;165.83;67.80;;;;;;;;;;4954490;28;20430;-78
2022/01/24 04:38:19;;;;;;;154.07;72.13;;;;;;;;;;4953993;28;20441;-78
2022/01/24 04:40:45;;;;;;;158.33;68.37;;;;;;;;;;4952474;28;20473;-79
2022/01/24 04:43:30;;;;;;;213.03;81.67;;;;;;;;;;4968820;28;20489;-78
2022/01/24 04:56:49;;;;;;;178.63;73.83;;;;;;;;;;4952562;28;20541;-78
2022/01/24 04:59:15;;;;;;;193.77;75.07;;;;;;;;;;4955016;28;20442;-78
2022/01/24 05:01:41;;;;;;;172.30;73.13;;;;;;;;;;4951691;28;20995;-78
2022/01/24 05:04:07;;;;;;;182.10;73.23;;;;;;;;;;4952977;28;20826;-78
2022/01/24 05:06:33;;;;;;;223.07;81.13;;;;;;;;;;4953009;28;20448;-78
2022/01/24 05:08:59;;;;;;;228.33;78.77;;;;;;;;;;4952114;28;21298;-79
2022/01/24 05:11:37;;;;;;;219.60;80.60;;;;;;;;;;4950163;28;21033;-79
2022/01/24 05:24:46;;;;;;;282.13;83.93;;;;;;;;;;4954919;28;20462;-79
2022/01/24 05:27:12;;;;;;;265.83;85.97;;;;;;;;;;4954793;28;20465;-79
2022/01/24 05:29:39;;;;;;;302.60;88.27;;;;;;;;;;4955084;28;20430;-80
2022/01/24 05:32:07;;;;;;;309.07;89.77;;;;;;;;;;4957572;28;20433;-80
2022/01/24 05:34:33;;;;;;;270.70;93.00;;;;;;;;;;4954484;28;20449;-80
2022/01/24 05:36:59;;;;;;;249.00;89.30;;;;;;;;;;4952575;28;20426;-80
2022/01/24 05:39:25;;;;;;;229.57;89.20;;;;;;;;;;4958041;28;20485;-80
2022/01/24 05:41:52;;;;;;;286.27;94.00;;;;;;;;;;4953834;28;20425;-80
2022/01/24 05:44:18;;;;;;;220.47;89.53;;;;;;;;;;4955407;28;20434;-80
2022/01/24 05:46:44;;;;;;;400.97;109.50;;;;;;;;;;4967163;28;20426;-80
2022/01/24 05:49:10;;;;;;;238.57;88.90;;;;;;;;;;4969493;28;20464;-80
2022/01/24 05:51:36;;;;;;;231.63;84.97;;;;;;;;;;4953044;28;20426;-80
2022/01/24 05:54:03;;;;;;;249.80;96.83;;;;;;;;;;4965063;28;20536;-79
2022/01/24 05:56:29;;;;;;;220.00;87.93;;;;;;;;;;4950494;28;20434;-79
2022/01/24 05:58:55;;;;;;;187.33;81.10;;;;;;;;;;4954625;28;20449;-79
2022/01/24 06:01:21;;;;;;;215.40;88.37;;;;;;;;;;4954255;28;21220;-79
2022/01/24 06:03:47;;;;;;;358.07;102.13;;;;;;;;;;4950474;28;20439;-80
2022/01/24 06:06:13;;;;;;;238.90;88.13;;;;;;;;;;4954006;28;20438;-80
2022/01/24 06:08:39;;;;;;;326.47;99.67;;;;;;;;;;4948791;28;20520;-79
2022/01/24 06:11:06;;;;;;;381.77;104.97;;;;;;;;;;4955563;28;21494;-79
2022/01/24 06:13:32;;;;;;;191.83;78.50;;;;;;;;;;4952894;28;21189;-80
2022/01/24 06:15:58;;;;;;;237.13;90.50;;;;;;;;;;4952062;28;21291;-79
2022/01/24 06:18:25;;;;;;;377.90;104.80;;;;;;;;;;4952168;28;20433;-80
2022/01/24 06:20:53;;;;;;;251.60;91.83;;;;;;;;;;4948558;28;20536;-79
2022/01/24 06:23:19;;;;;;;286.17;96.73;;;;;;;;;;4955770;28;20433;-79
2022/01/24 06:25:45;;;;;;;186.03;79.33;;;;;;;;;;4949806;28;20431;-80
2022/01/24 06:28:11;;;;;;;238.33;89.80;;;;;;;;;;4949558;28;21107;-80
2022/01/24 06:30:38;;;;;;;267.30;87.23;;;;;;;;;;4958314;28;20510;-80
2022/01/24 06:33:05;;;;;;;216.27;87.10;;;;;;;;;;4955834;28;20410;-80
2022/01/24 06:35:31;;;;;;;202.17;85.43;;;;;;;;;;4952757;28;20430;-81
2022/01/24 06:37:57;;;;;;;197.70;78.77;;;;;;;;;;4952905;28;20462;-81
2022/01/24 06:40:23;;;;;;;204.03;80.47;;;;;;;;;;4959407;28;20524;-81
2022/01/24 06:42:49;;;;;;;166.13;73.50;;;;;;;;;;4951680;28;20441;-81
2022/01/24 06:45:16;;;;;;;170.30;71.83;;;;;;;;;;4957000;28;21013;-81
2022/01/24 06:47:42;;;;;;;158.87;73.07;;;;;;;;;;4956365;28;20460;-82
2022/01/24 06:50:08;;;;;;;211.97;83.47;;;;;;;;;;4970668;28;20426;-81
2022/01/24 06:52:34;;;;;;;174.23;76.93;;;;;;;;;;4957226;28;20421;-81
2022/01/24 06:55:03;;;;;;;336.30;102.00;;;;;;;;;;4953793;28;20477;-81
2022/01/24 06:57:29;;;;;;;232.77;84.60;;;;;;;;;;4956232;28;20419;-81
2022/01/24 06:59:55;;;;;;;168.23;76.00;;;;;;;;;;4955078;28;20508;-80
2022/01/24 07:02:21;;;;;;;209.47;86.97;;;;;;;;;;4957689;28;21310;-80
2022/01/24 07:04:47;;;;;;;174.17;74.60;;;;;;;;;;4955313;28;21076;-79
2022/01/24 07:07:14;;;;;;;169.60;77.10;;;;;;;;;;4948914;28;20441;-78
2022/01/24 07:09:41;;;;;;;158.03;74.20;;;;;;;;;;4953167;28;20481;-78
2022/01/24 07:12:08;;;;;;;164.47;73.17;;;;;;;;;;4953757;28;20430;-79
2022/01/24 07:14:34;;;;;;;159.10;74.27;;;;;;;;;;4953678;28;20429;-78
2022/01/24 07:19:28;;;;;;;197.07;86.87;;;;;;;;;;4951946;28;20425;-79
2022/01/24 07:21:55;;;;;;;159.17;74.17;;;;;;;;;;4953199;28;20535;-80
2022/01/24 07:24:21;;;;;;;140.80;69.20;;;;;;;;;;4954818;28;20854;-79
2022/01/24 07:26:47;;;;;;;163.60;78.53;;;;;;;;;;4952744;28;20474;-80
2022/01/24 07:29:13;;;;;;;165.63;75.70;;;;;;;;;;4954008;28;20505;-80
2022/01/24 07:31:39;;;;;;;154.83;77.60;;;;;;;;;;4949346;28;20433;-80
2022/01/24 07:34:05;;;;;;;163.83;75.13;;;;;;;;;;4948713;28;20504;-81
2022/01/24 07:36:32;;;;;;;142.77;71.03;;;;;;;;;;4945241;28;20524;-80
2022/01/24 07:38:58;;;;;;;151.67;73.70;;;;;;;;;;4947298;28;20438;-79
2022/01/24 07:41:28;;;;;;;158.00;76.27;;;;;;;;;;4952544;28;20530;-79
2022/01/24 07:43:55;;;;;;;158.80;75.50;;;;;;;;;;4949158;28;20441;-80
2022/01/24 07:46:21;;;;;;;214.67;91.33;;;;;;;;;;4946016;28;21193;-80
2022/01/24 07:48:47;;;;;;;266.37;103.93;;;;;;;;;;4947643;28;21032;-80
2022/01/24 07:51:15;;;;;;;187.03;85.30;;;;;;;;;;4951258;28;20434;-80
2022/01/24 07:53:41;;;;;;;206.63;92.13;;;;;;;;;;4952145;28;22189;-80
2022/01/24 07:56:07;;;;;;;239.17;99.23;;;;;;;;;;4953467;28;20430;-80
2022/01/24 07:58:34;;;;;;;264.30;102.30;;;;;;;;;;4952468;28;20446;-80
2022/01/24 08:01:00;;;;;;;246.63;98.33;;;;;;;;;;4934013;28;21153;-80
2022/01/24 08:03:27;;;;;;;208.03;95.93;;;;;;;;;;4969729;28;20418;-80
2022/01/24 08:05:53;;;;;;;268.30;104.70;;;;;;;;;;4951084;28;21201;-80
2022/01/24 08:08:21;;;;;;;260.97;104.77;;;;;;;;;;4963609;28;20527;-80
2022/01/24 08:10:47;;;;;;;250.67;101.33;;;;;;;;;;4967710;28;20433;-80
2022/01/24 08:13:13;;;;;;;296.30;114.27;;;;;;;;;;4947246;28;22205;-81
2022/01/24 08:15:40;;;;;;;217.67;95.23;;;;;;;;;;4948318;28;21337;-80
2022/01/24 08:18:06;;;;;;;280.30;109.87;;;;;;;;;;4950592;28;20437;-80
2022/01/24 08:20:33;;;;;;;201.63;90.90;;;;;;;;;;4951408;28;20504;-80
2022/01/24 08:23:00;;;;;;;212.80;90.57;;;;;;;;;;4954678;28;20430;-80
2022/01/24 08:25:26;;;;;;;213.83;92.83;;;;;;;;;;4951582;28;20440;-80
2022/01/24 08:27:53;;;;;;;193.40;86.87;;;;;;;;;;4951486;28;20464;-80
2022/01/24 08:30:20;;;;;;;216.87;93.27;;;;;;;;;;4950571;28;20414;-80
2022/01/24 08:32:46;;;;;;;216.87;91.87;;;;;;;;;;4952621;28;20457;-79
2022/01/24 08:35:13;;;;;;;216.57;91.70;;;;;;;;;;4952096;28;22012;-80
2022/01/24 08:37:39;;;;;;;254.50;104.43;;;;;;;;;;4949527;28;21332;-80
2022/01/24 08:40:07;;;;;;;242.63;100.73;;;;;;;;;;4952511;28;21193;-80
2022/01/24 08:42:41;;;;;;;237.87;101.33;;;;;;;;;;4953853;28;20670;-80
2022/01/24 08:47:37;;;;;;;262.50;105.47;;;;;;;;;;4955700;28;20466;-80
2022/01/24 08:50:04;;;;;;;228.97;95.23;;;;;;;;;;4950017;28;20457;-79
2022/01/24 08:52:31;;;;;;;224.90;96.53;;;;;;;;;;4952785;28;20552;-79
2022/01/24 08:54:57;;;;;;;298.30;110.63;;;;;;;;;;4955808;28;21025;-79
2022/01/24 08:57:26;;;;;;;319.77;114.00;;;;;;;;;;4954486;28;20537;-79
2022/01/24 08:59:53;;;;;;;310.97;111.47;;;;;;;;;;4955010;28;21429;-80
2022/01/24 09:02:19;;;;;;;255.33;99.40;;;;;;;;;;4967932;28;20448;-80
2022/01/24 09:04:46;;;;;;;336.27;112.40;;;;;;;;;;4955838;28;20433;-80
2022/01/24 09:07:15;;;;;;;321.00;108.77;;;;;;;;;;4952504;28;20461;-80
2022/01/24 09:09:41;;;;;;;242.27;94.07;;;;;;;;;;4971871;28;21273;-81
2022/01/24 09:12:11;;;;;;;229.03;92.63;;;;;;;;;;4956026;28;20433;-80
2022/01/24 09:14:39;;;;;;;214.53;86.43;;;;;;;;;;4953881;28;20437;-80
2022/01/24 09:17:05;;;;;;;263.00;101.53;;;;;;;;;;4951245;28;20426;-80
2022/01/24 09:19:31;;;;;;;248.53;97.60;;;;;;;;;;4953169;28;21345;-80
2022/01/24 09:21:57;;;;;;;308.03;102.57;;;;;;;;;;4957289;28;20425;-79
2022/01/24 09:24:23;;;;;;;347.40;113.17;;;;;;;;;;4953471;28;20413;-79
2022/01/24 09:26:49;;;;;;;256.00;99.03;;;;;;;;;;4954633;28;21142;-80
2022/01/24 09:29:15;;;;;;;354.30;113.50;;;;;;;;;;4951647;28;20449;-79
2022/01/24 09:31:42;;;;;;;403.40;123.67;;;;;;;;;;4954086;28;20437;-80
2022/01/24 09:34:08;;;;;;;236.47;95.83;;;;;;;;;;4967159;28;21281;-79
2022/01/24 09:36:34;;;;;;;372.10;117.77;;;;;;;;;;4951862;28;20422;-78
2022/01/24 09:39:00;;;;;;;251.83;100.27;;;;;;;;;;4954204;28;21279;-79
2022/01/24 09:41:26;;;;;;;230.80;94.10;;;;;;;;;;4957101;28;20433;-80
2022/01/24 09:43:52;;;;;;;235.67;96.80;;;;;;;;;;4955517;28;20444;-79
2022/01/24 09:46:18;;;;;;;259.93;104.27;;;;;;;;;;4948854;28;20434;-79
2022/01/24 09:48:45;;;;;;;233.57;96.80;;;;;;;;;;4954213;28;20446;-79
2022/01/24 09:51:11;;;;;;;225.97;96.80;;;;;;;;;;4953836;28;20414;-80
2022/01/24 09:53:37;;;;;;;217.67;94.50;;;;;;;;;;4953698;28;21151;-79
2022/01/24 09:56:04;;;;;;;195.73;89.67;;;;;;;;;;4949975;28;20429;-79
2022/01/24 09:58:35;;;;;;;233.10;96.43;;;;;;;;;;4953455;28;21083;-78
2022/01/24 10:01:01;;;;;;;263.50;100.87;;;;;;;;;;4952634;28;20441;-79
2022/01/24 10:03:28;;;;;;;376.03;120.23;;;;;;;;;;4950251;28;20430;-79
2022/01/24 10:05:55;;;;;;;241.43;98.87;;;;;;;;;;4951423;28;20434;-79
2022/01/24 10:08:24;;;;;;;246.40;100.70;;;;;;;;;;4953668;28;20458;-80
2022/01/24 10:10:51;;;;;;;292.80;111.73;;;;;;;;;;4953615;28;21053;-79
2022/01/24 10:19:07;;;;;;;243.80;101.67;;;;;;;;;;4955260;28;20519;-80
2022/01/24 10:21:38;;;;;;;263.77;105.20;;;;;;;;;;4951771;28;20688;-80
2022/01/24 10:24:04;;;;;;;268.03;105.00;;;;;;;;;;4953784;28;21311;-80
2022/01/24 10:26:30;;;;;;;294.20;112.53;;;;;;;;;;4954211;28;20422;-81
2022/01/24 10:28:56;;;;;;;265.37;109.00;;;;;;;;;;4953119;28;20946;-82
2022/01/24 10:31:28;;;;;;;239.47;100.27;;;;;;;;;;4956381;28;20414;-81
2022/01/24 10:33:55;;;;;;;261.23;106.03;;;;;;;;;;4950557;28;20426;-81
2022/01/24 10:36:36;;;;;;;254.07;103.47;;;;;;;;;;4951989;28;20866;-80
2022/01/24 10:39:29;;;;;;;296.63;114.33;;;;;;;;;;4952632;28;20556;-80
2022/01/24 10:42:26;;;;;;;303.73;105.67;;;;;;;;;;4954193;28;20430;-79
2022/01/24 10:44:53;;;;;;;223.87;96.50;;;;;;;;;;4954259;28;20602;-80
2022/01/24 10:47:22;;;;;;;262.60;106.07;;;;;;;;;;4950472;28;20430;-80
2022/01/24 10:49:49;;;;;;;233.27;99.17;;;;;;;;;;4952038;28;21240;-80
2022/01/24 10:52:20;;;;;;;250.97;102.67;;;;;;;;;;4950321;28;21292;-80
2022/01/24 10:54:51;;;;;;;260.57;102.17;;;;;;;;;;4967028;28;21646;-80
2022/01/24 10:57:21;;;;;;;208.43;90.37;;;;;;;;;;4951725;28;20406;-81
2022/01/24 10:59:47;;;;;;;229.70;95.73;;;;;;;;;;4945697;28;20461;-80
2022/01/24 11:02:15;;;;;;;233.77;94.50;;;;;;;;;;4951839;28;20457;-80
2022/01/24 11:04:42;;;;;;;236.87;97.17;;;;;;;;;;4966199;28;20429;-81
2022/01/24 11:07:08;;;;;;;268.03;105.90;;;;;;;;;;4944595;28;20425;-79
2022/01/24 11:09:35;;;;;;;281.97;106.80;;;;;;;;;;4950199;28;20459;-80
2022/01/24 11:12:06;;;;;;;283.60;103.83;;;;;;;;;;4964782;28;20440;-81
2022/01/24 11:14:33;;;;;;;303.10;108.70;;;;;;;;;;4965945;28;20418;-80
2022/01/24 11:17:00;;;;;;;302.70;107.47;;;;;;;;;;4949578;28;20586;-80
2022/01/24 11:21:54;;;;;;;218.17;90.87;;;;;;;;;;4953453;28;20422;-83
2022/01/24 11:24:27;;;;;;;271.33;102.63;;;;;;;;;;4946404;28;20414;-79
2022/01/24 11:26:54;;;;;;;249.20;101.87;;;;;;;;;;4952956;28;20423;-80
2022/01/24 11:29:21;;;;;;;271.23;103.37;;;;;;;;;;4965852;28;20469;-80
2022/01/24 11:31:52;;;;;;;226.70;91.93;;;;;;;;;;4950760;28;20445;-81
2022/01/24 11:34:30;;;;;;;282.07;105.17;;;;;;;;;;4950202;28;20445;-80
2022/01/24 11:36:56;;;;;;;260.43;100.73;;;;;;;;;;4964354;28;20524;-80
2022/01/24 11:39:23;;;;;;;230.20;94.23;;;;;;;;;;4966446;28;20426;-81
2022/01/24 11:41:49;;;;;;;233.10;93.97;;;;;;;;;;4951164;28;20434;-81
2022/01/24 11:44:17;;;;;;;232.73;94.80;;;;;;;;;;4952260;28;21020;-80
2022/01/24 11:46:55;;;;;;;220.17;92.97;;;;;;;;;;4966633;28;21189;-80
2022/01/24 11:49:25;;;;;;;202.40;88.27;;;;;;;;;;4952470;28;20453;-80
2022/01/24 11:52:01;;;;;;;204.37;86.80;;;;;;;;;;4950339;28;20410;-80
2022/01/24 11:54:42;;;;;;;178.93;80.40;;;;;;;;;;4965383;28;21137;-81
2022/01/24 11:57:28;;;;;;;173.53;77.97;;;;;;;;;;4949439;28;20433;-81
2022/01/24 12:00:06;;;;;;;183.73;82.90;;;;;;;;;;4950585;28;20433;-81
2022/01/24 12:02:42;;;;;;;183.50;84.47;;;;;;;;;;4949482;28;20421;-81
2022/01/24 12:05:11;;;;;;;163.63;74.43;;;;;;;;;;4949800;28;20433;-81
2022/01/24 12:07:42;;;;;;;148.90;73.87;;;;;;;;;;4947174;28;22326;-81
2022/01/24 12:10:25;;;;;;;153.87;73.43;;;;;;;;;;4950108;28;20426;-81
2022/01/24 12:12:55;;;;;;;138.23;70.23;;;;;;;;;;4949935;28;20438;-81
2022/01/24 12:15:37;;;;;;;163.50;75.60;;;;;;;;;;4951964;28;21001;-81
2022/01/24 12:18:18;;;;;;;141.40;70.13;;;;;;;;;;4948291;28;20432;-80
2022/01/24 12:20:44;;;;;;;141.53;68.70;;;;;;;;;;4951274;28;20446;-82
2022/01/24 12:23:25;;;;;;;135.80;65.87;;;;;;;;;;4949490;28;20544;-81
2022/01/24 12:25:57;;;;;;;140.10;67.17;;;;;;;;;;4953563;28;20422;-81
2022/01/24 12:28:35;;;;;;;130.07;64.97;;;;;;;;;;4950160;28;20564;-81
2022/01/24 12:31:10;;;;;;;130.13;65.20;;;;;;;;;;4948661;28;21037;-81
2022/01/24 12:33:41;;;;;;;128.67;63.80;;;;;;;;;;4954261;28;20425;-81
2022/01/24 12:36:09;;;;;;;124.73;62.37;;;;;;;;;;4949782;28;20472;-82
2022/01/24 12:38:44;;;;;;;114.33;58.07;;;;;;;;;;4951335;28;20426;-81
2022/01/24 12:41:32;;;;;;;114.77;58.93;;;;;;;;;;4949165;28;20422;-80
2022/01/24 12:46:28;;;;;;;118.20;57.30;;;;;;;;;;4950081;28;20818;-80
2022/01/24 12:48:56;;;;;;;120.33;56.73;;;;;;;;;;4948192;28;20462;-81
2022/01/24 12:51:23;;;;;;;115.30;55.40;;;;;;;;;;4950807;28;20426;-80
2022/01/24 12:53:49;;;;;;;111.57;55.10;;;;;;;;;;4945703;28;20859;-80
2022/01/24 12:56:18;;;;;;;112.07;53.67;;;;;;;;;;4948322;28;20537;-80
2022/01/24 12:58:46;;;;;;;107.10;55.97;;;;;;;;;;4947638;28;20442;-80
2022/01/24 13:01:19;;;;;;;108.07;55.20;;;;;;;;;;4950026;28;21239;-81
2022/01/24 13:03:55;;;;;;;104.23;55.03;;;;;;;;;;4947523;28;20461;-80
2022/01/24 13:06:21;;;;;;;106.00;54.03;;;;;;;;;;4951096;28;20449;-80
2022/01/24 13:08:57;;;;;;;100.23;51.90;;;;;;;;;;4947360;28;20492;-80
2022/01/24 13:11:23;;;;;;;107.67;55.83;;;;;;;;;;4947915;28;20425;-80
2022/01/24 13:14:10;;;;;;;108.70;53.13;;;;;;;;;;4948273;28;21260;-80
2022/01/24 13:22:31;;;;;;;113.97;55.83;;;;;;;;;;4949398;28;20668;-81
2022/01/24 13:25:04;;;;;;;110.80;54.57;;;;;;;;;;4950154;28;20425;-80
2022/01/24 13:27:42;;;;;;;106.60;54.53;;;;;;;;;;4947709;28;20430;-80
2022/01/24 13:30:09;;;;;;;112.50;56.10;;;;;;;;;;4966908;28;21073;-80
2022/01/24 13:32:47;;;;;;;122.47;57.07;;;;;;;;;;4954193;28;20813;-80
2022/01/24 13:35:17;;;;;;;106.43;54.33;;;;;;;;;;4954424;28;21079;-81
2022/01/24 13:37:44;;;;;;;113.23;53.73;;;;;;;;;;4950384;28;20440;-81
2022/01/24 13:40:10;;;;;;;109.63;54.10;;;;;;;;;;4950998;28;20549;-80
2022/01/24 13:42:37;;;;;;;99.83;53.17;;;;;;;;;;4968785;28;20414;-80
2022/01/24 13:45:03;;;;;;;99.30;51.77;;;;;;;;;;4952050;28;20541;-80
2022/01/24 13:47:30;;;;;;;97.83;53.03;;;;;;;;;;4951485;28;21196;-80
2022/01/24 13:49:56;;;;;;;97.67;50.10;;;;;;;;;;4951858;28;20445;-80
2022/01/24 13:52:25;;;;;;;104.07;52.23;;;;;;;;;;4952775;28;20409;-80
2022/01/24 13:54:51;;;;;;;97.20;50.17;;;;;;;;;;4951994;28;21280;-81
2022/01/24 13:57:18;;;;;;;103.80;53.43;;;;;;;;;;4945676;28;20428;-80
2022/01/24 13:59:44;;;;;;;97.13;50.13;;;;;;;;;;4949223;28;20448;-81
2022/01/24 14:02:12;;;;;;;96.20;48.83;;;;;;;;;;4952101;28;20434;-81
2022/01/24 14:04:41;;;;;;;106.03;52.67;;;;;;;;;;4953323;28;20482;-80
2022/01/24 14:07:11;;;;;;;94.80;49.13;;;;;;;;;;4951515;28;20418;-80
2022/01/24 14:09:42;;;;;;;95.97;49.63;;;;;;;;;;4970149;28;20445;-80
2022/01/24 14:12:18;;;;;;;98.97;51.83;;;;;;;;;;4954838;28;20503;-80
2022/01/24 14:14:54;;;;;;;95.77;50.33;;;;;;;;;;4954081;28;20440;-78
2022/01/24 14:17:29;;;;;;;95.03;50.73;;;;;;;;;;4946328;28;21101;-80
2022/01/24 14:20:01;;;;;;;100.67;52.37;;;;;;;;;;4951946;28;20453;-79
2022/01/24 14:23:00;;;;;;;104.33;52.90;;;;;;;;;;4950888;28;20427;-79
2022/01/24 14:25:31;;;;;;;97.73;51.57;;;;;;;;;;4941765;28;20442;-79
2022/01/24 14:28:05;;;;;;;97.10;50.57;;;;;;;;;;4951564;28;20981;-79
2022/01/24 14:30:38;;;;;;;96.07;52.47;;;;;;;;;;4951732;28;20426;-79
2022/01/24 14:33:12;;;;;;;94.73;49.37;;;;;;;;;;4952958;28;21124;-80
2022/01/24 14:35:56;;;;;;;95.27;50.77;;;;;;;;;;4953955;28;20414;-79
2022/01/24 14:38:28;;;;;;;98.27;52.17;;;;;;;;;;4953026;28;20488;-79
2022/01/24 14:40:56;;;;;;;100.10;49.80;;;;;;;;;;4953685;28;20453;-79
2022/01/24 14:46:10;;;;;;;94.27;50.80;;;;;;;;;;4954941;28;20441;-79
2022/01/24 14:48:43;;;;;;;101.17;50.60;;;;;;;;;;4968140;28;20460;-79
2022/01/24 14:51:10;;;;;;;98.70;52.00;;;;;;;;;;4951577;28;20426;-79
2022/01/24 14:53:36;;;;;;;97.63;50.20;;;;;;;;;;4949015;28;20431;-79
2022/01/24 14:56:02;;;;;;;98.30;51.40;;;;;;;;;;4948416;28;20450;-80
2022/01/24 14:58:28;;;;;;;95.97;49.20;;;;;;;;;;4944341;28;20527;-79
2022/01/24 15:00:54;;;;;;;99.90;50.37;;;;;;;;;;4953598;28;20437;-81
2022/01/24 15:03:20;;;;;;;97.73;52.43;;;;;;;;;;4952962;28;21307;-81
2022/01/24 15:05:46;;;;;;;100.63;51.53;;;;;;;;;;4953425;28;20514;-80
2022/01/24 15:08:13;;;;;;;105.07;52.60;;;;;;;;;;4951422;28;20450;-80
2022/01/24 15:10:39;;;;;;;98.83;52.20;;;;;;;;;;4954002;28;20513;-80
2022/01/24 15:13:08;;;;;;;98.27;51.60;;;;;;;;;;4947784;28;20908;-80
2022/01/24 15:15:38;;;;;;;100.67;51.07;;;;;;;;;;4954591;28;20454;-81
2022/01/24 15:26:04;;;;;;;98.40;51.83;;;;;;;;;;4952577;28;20476;-81
2022/01/24 15:28:31;;;;;;;102.63;54.13;;;;;;;;;;4951420;28;21116;-81
2022/01/24 15:30:57;;;;;;;105.40;54.80;;;;;;;;;;4951497;28;20441;-81
2022/01/24 15:33:23;;;;;;;113.30;56.17;;;;;;;;;;4951697;28;21365;-81
2022/01/24 15:35:53;;;;;;;110.10;55.10;;;;;;;;;;4950751;28;21301;-81
2022/01/24 15:38:19;;;;;;;108.03;54.60;;;;;;;;;;4953673;28;20430;-80
2022/01/24 15:40:46;;;;;;;106.20;56.53;;;;;;;;;;4953089;28;21555;-80
2022/01/24 15:48:22;;;;;;;112.80;57.73;;;;;;;;;;4953783;28;20461;-79
2022/01/24 15:50:49;;;;;;;121.93;60.33;;;;;;;;;;4965570;28;20433;-80
2022/01/24 15:53:15;;;;;;;115.87;58.10;;;;;;;;;;4951210;28;21156;-79
2022/01/24 15:55:50;;;;;;;117.97;59.17;;;;;;;;;;4949522;28;20437;-79
2022/01/24 15:58:17;;;;;;;120.47;59.40;;;;;;;;;;4945475;28;20528;-79
2022/01/24 16:00:43;;;;;;;118.10;59.17;;;;;;;;;;4950622;28;20440;-79
2022/01/24 16:03:10;;;;;;;129.27;65.90;;;;;;;;;;4963044;28;20485;-79
2022/01/24 16:05:37;;;;;;;117.50;59.30;;;;;;;;;;4952546;28;21150;-79
2022/01/24 16:08:04;;;;;;;123.63;62.33;;;;;;;;;;4951897;28;20579;-79
2022/01/24 16:10:35;;;;;;;123.93;61.87;;;;;;;;;;4953752;28;20421;-80
2022/01/24 16:13:02;;;;;;;117.27;58.77;;;;;;;;;;4967120;28;20945;-79
2022/01/24 16:15:29;;;;;;;116.67;58.97;;;;;;;;;;4952033;28;20426;-80
2022/01/24 16:17:56;;;;;;;121.37;62.27;;;;;;;;;;4951008;28;20525;-79
2022/01/24 16:25:47;;;;;;;122.00;59.43;;;;;;;;;;4952793;28;20418;-79
2022/01/24 16:28:16;;;;;;;130.53;63.40;;;;;;;;;;4946972;28;20442;-79
2022/01/24 16:30:45;;;;;;;131.33;66.97;;;;;;;;;;4948860;28;20476;-80
2022/01/24 16:33:12;;;;;;;136.70;65.90;;;;;;;;;;4951922;28;21555;-79